Latest METARs, TAFs and NOTAMs for MGGT


---------------------------------------------------------------------------
	(OBSERVATIONS)
MGGT 170900Z 36010KT 9999 BKN012 18/17 Q1024 A3024=
MGGT 170800Z 36012KT 9999 BKN012 18/17 Q1024 A3024=
MGGT 170700Z 36010KT 9999 BKN012 18/17 Q1024 A3024=
---------------------------------------------------------------------------
	(TERMINAL AREA FORECAST)
MGGT 170500Z 1706/1806 36010KT 9999 BKN014 TX26/1720Z
    TN16/1712Z
    TEMPO 1706/1714 FEW016
    BECMG 1715/1717 FEW018 PROB30
    TEMPO 1722/1803 36014KT 8000 VCSH SCT018
    BECMG 1803/1805 SCT016=
---------------------------------------------------------------------------
	(NOTAMS)


MGGT A0187/16 REF MGGT AD 2-27 ACFT STAND 3A CHG COORD 143513.74173N
    0903147.23383W. 01 FEB 17:30 2016 UNTIL PERM. CREATED: 01
    FEB 17:21 2016

MGGT A0188/16 REF MGGT AD 2-27 ACFT STAND 5A CHG COORD 143518.23955N
    0903145.69390W. 01 FEB 17:30 2016 UNTIL PERM. CREATED: 01
    JAN 15:31 2017

MGGT A1507/17 RNAV X RWY 02 PROCEDURE NOT AVBL RNAV W RWY 02
    PROCEDURE NOT AVBL RNAV X RWY 20 PROCEDURE GT599 NOT AVBL.
    23 AUG 16:27 2017 UNTIL 23 NOV 23:59 2017. CREATED: 23 AUG
    16:27 2017

MGGT A1516/17 ILS CAT I I-AAI FREQ 110.1MHZ RWY02 U/S DUE TO
    MAINT. 01 SEP 05:00 2017 UNTIL 01 DEC 11:00 2017. CREATED:
    23 AUG 19:20 2017

MGGT A1518/17 RWY 02/20 CLSD DUE MEN AND EQPT WORKING DUE TO
    MAINT. DAILY 0500/1100, 12 SEP 05:00 2017 UNTIL 12 DEC 11:00
    2017. CREATED: 23 AUG 22:39 2017

MGGT A1533/17 TWY E FM INT J TO HLDG POINT RWY 02 CLSD DUE MEN
    AND EQPT WORKING ACFT EXER CTN AND REQ ATC INSTRUCTIONS.
    01 SEP 00:01 2017 UNTIL 30 NOV 23:59 2017. CREATED: 25 AUG
    20:42 2017

MGGT A1536/17 REIL RWY 02/20 U/S DUE TO MAINT. 25 AUG 22:05 2017
    UNTIL 25 NOV 22:05 2017. CREATED: 25 AUG 22:03 2017

MGGT A1570/17 RWY 02/20 MARKING PARTIALLY VISIBLE DUE TO PAINTING
    WORKS. 04 SEP 05:00 2017 UNTIL 04 DEC 05:00 2017. CREATED:
    29 AUG 21:58 2017

MGGT A1896/17 AFTN SYSTEM U/S. 18 OCT 22:00 2017 UNTIL 19 OCT
    02:00 2017. CREATED: 17 OCT 02:17 2017

MGGT A2953/15 INST APCH PROC VOR Y RWY 02 VOR Z RWY 02 FAF ULDES
    CHG ALT TO 6300 FT. 21 DEC 20:49 2015 UNTIL PERM. CREATED:
    21 DEC 20:49 2015

MGGT A2954/15 INST APCH PROC ILS Y RWY 02 ILS Z RWY 02 FAP VILAN
    CHG COORD TO 143004.10N 0903313.93W. 21 DEC 20:50 2015 UNTIL
    PERM. CREATED: 21 DEC 20:50 2015

MGGT F0011/08 [DEFENSE ENERGY SUPPORT CENTER ADVISORY] FUEL AVAILABILITY
    LIMITED BEGINNING MAY 3, 2008 DAILY VOLUME WILL BE REDUCED
    FOR GOVERNMENT CONTRACT FUEL (SP0600-05-D-0003). CALL AHEAD
    TO ENURE FUEL AVAILABILITY. STAFF DUTY OFFICER #DSN 427-8420.
    05 AUG 01:17 2020 UNTIL 05 AUG 30:17 2020

MGGT F0014/08 [DEFENSE ENERGY SUPPORT CENTER ADVISORY] FUEL AVAILABILITY
    LIMITED QUANTITY UNTIL FURTHER NOTICE. PHONE AHEAD FOR FUEL
    AVAILABILITY. 05 AUG 08:12 2020 UNTIL 06 AUG 10:12 2020

MGGT F0044/11 [DEFENSE ENERGY SUPPORT CENTER ADVISORY] FUEL AVAILABILITY
    HOURS OF SERVICE ARE NEW FUELING HOURS FROM 09:00 AM TO 4:00
    PM. ALL FUELINGS OUTSIDE THIS SCHEDULE, WILL BE PROVIDED
    AT THE SOUTH INTERNATIONAL RAMP SO THAT ANY PERMISSION MUST
    BE OBTAINED FROM DGAC (DIRECCION GENERAL DE AERONAUTICA CIVIL),
    BY ALL CUSTOMERS IN CASE IT IS NECESSARY. DLA ENERGY DUTY
    OFFICER'S TELEPHONE NUMBER IS 703-767-8420, DSN 427-8420.
    06 NOV 14:14 2020 UNTIL 08 NOV 30:14 2020

---------------------------------------------------------------------------